IK5NLA Vaiano IT current weather conditions

sailwx.info

Wind from 180 at 0 knots gusting 0

Air temperature 13.3° C
Dewpoint 5.2° C

Last reported at 2014-Oct-29 10:35 UTC.
Time now 2014-Oct-30 13:55 UTC

Location: N 43°58' E 011°06'.
View on Google Maps.

See reports from other nearby stations

  
Tides and Currents Weather Stations Pressure Air Temp Water Temp Dewpoint Dewpoint Depression Visibility Wind Speed Wind Dir Waves Ship Positions
date/time (UTC)wind fromknots sea level pressurealtimeterstation pressurevisibilityair tempwater tempwave heightnotes
2014-Oct-29 10:35 180 0 gusting 0 13.3
2014-Oct-29 10:15 126 2 gusting 2 13.3
2014-Oct-29 10:05 055 1 gusting 3 12.8
2014-Oct-29 09:55 107 0 gusting 0 12.2
2014-Oct-29 09:35 080 2 gusting 2 12.2
2014-Oct-29 09:25 095 2 gusting 2 11.7
2014-Oct-29 09:15 106 2 gusting 2 11.7
2014-Oct-29 09:05 088 2 gusting 2 11.7
2014-Oct-29 08:55 090 2 gusting 2 11.1
2014-Oct-29 08:45 118 2 gusting 2 11.1
2014-Oct-29 08:35 108 2 gusting 2 11.1
2014-Oct-29 08:25 101 2 gusting 2 11.1
2014-Oct-29 08:15 102 2 gusting 2 10.6
2014-Oct-29 08:05 097 2 gusting 2 10.6
2014-Oct-29 07:55 122 3 gusting 3 10.6
2014-Oct-29 07:45 088 3 gusting 3 10.0
2014-Oct-29 07:35 092 2 gusting 2 10.0
2014-Oct-29 07:25 087 3 gusting 3 10.0
2014-Oct-29 07:15 078 4 gusting 4 9.4
2014-Oct-29 07:05 101 2 gusting 2 9.4
2014-Oct-29 06:55 089 2 gusting 2 9.4
2014-Oct-29 06:35 037 1 gusting 1 9.4
2014-Oct-29 06:25 024 3 gusting 3 8.9
2014-Oct-29 06:15 023 2 gusting 2 8.3
2014-Oct-29 06:05 348 4 gusting 4 8.3
2014-Oct-29 05:55 020 2 gusting 2 7.8
2014-Oct-29 05:45 355 3 gusting 4 7.8
2014-Oct-29 05:35 360 3 gusting 4 7.8
2014-Oct-29 05:25 022 3 gusting 3 7.8
2014-Oct-29 05:15 019 2 gusting 2 7.8
2014-Oct-29 05:05 342 3 gusting 3 7.8
2014-Oct-29 04:55 020 2 gusting 2 8.3
2014-Oct-29 04:45 355 2 gusting 2 8.3
2014-Oct-29 04:35 355 3 gusting 3 8.3
2014-Oct-29 04:05 034 3 gusting 3 8.3
2014-Oct-29 03:55 011 2 gusting 2 8.3
2014-Oct-29 03:45 022 2 gusting 3 8.3
2014-Oct-29 03:35 031 2 gusting 2 8.3
2014-Oct-29 03:15 029 3 gusting 3 8.3
2014-Oct-29 03:05 031 2 gusting 2 8.3
2014-Oct-29 02:55 064 2 gusting 2 8.3
2014-Oct-29 02:45 044 2 gusting 2 8.3
2014-Oct-29 02:35 055 5 gusting 5 8.3
2014-Oct-29 02:25 066 3 gusting 3 8.3
2014-Oct-29 02:15 029 2 gusting 3 8.3
2014-Oct-29 02:05 040 3 gusting 3 8.9
2014-Oct-29 01:55 044 1 gusting 2 8.9
2014-Oct-29 01:45 017 4 gusting 6 8.9
2014-Oct-29 01:36 360 3 gusting 3 8.9
2014-Oct-29 01:25 046 1 gusting 2 8.3
2014-Oct-29 01:15 026 1 gusting 6 8.9
2014-Oct-29 01:05 307 2 gusting 3 8.3
2014-Oct-29 00:55 049 1 gusting 1 8.3
2014-Oct-29 00:45 059 2 gusting 2 8.3
2014-Oct-29 00:25 069 2 gusting 2 8.3
2014-Oct-29 00:15 067 8.3
2014-Oct-29 00:05 066 2 gusting 2 8.9
2014-Oct-28 23:55 034 2 gusting 2 8.9
2014-Oct-28 23:45 360 3 gusting 4 8.9
2014-Oct-28 23:35 032 4 gusting 4 8.3
2014-Oct-28 23:25 078 2 gusting 2 8.3
2014-Oct-28 23:15 044 2 gusting 2 8.3
2014-Oct-28 23:05 053 0 gusting 2 8.3
2014-Oct-28 22:45 026 2 gusting 3 8.3
2014-Oct-28 22:35 034 2 gusting 3 8.3
2014-Oct-28 22:25 355 4 gusting 6 8.3
2014-Oct-28 22:15 360 3 gusting 3 8.3
2014-Oct-28 22:05 330 3 gusting 3 8.3
2014-Oct-28 21:55 338 3 gusting 3 8.3
2014-Oct-28 21:45 341 2 gusting 3 8.3
2014-Oct-28 21:25 032 4 gusting 4 8.3
2014-Oct-28 21:15 319 4 gusting 4 8.3
2014-Oct-28 21:05 342 3 gusting 5 8.3
2014-Oct-28 20:45 015 3 gusting 5 8.3
2014-Oct-28 20:35 346 1 gusting 2 8.3
2014-Oct-28 20:25 355 2 gusting 2 8.9
2014-Oct-28 20:15 332 2 gusting 8 8.9
2014-Oct-28 20:05 360 4 gusting 5 8.9
2014-Oct-28 19:55 355 1 gusting 6 8.9
2014-Oct-28 19:35 325 3 gusting 4 8.9
2014-Oct-28 19:25 011 2 gusting 3 8.9
2014-Oct-28 19:15 019 2 gusting 6 8.9
2014-Oct-28 18:55 023 4 gusting 4 8.9
2014-Oct-28 18:45 341 2 gusting 2 8.9
2014-Oct-28 18:25 027 2 gusting 6 8.9
2014-Oct-28 18:15 355 1 gusting 1 8.9
2014-Oct-28 18:05 014 2 gusting 2 8.9
2014-Oct-28 17:45 355 3 gusting 7 8.9
2014-Oct-28 17:35 082 3 gusting 4 9.4
2014-Oct-28 17:25 346 7 gusting 7 9.4
2014-Oct-28 17:15 336 3 gusting 3 9.4
2014-Oct-28 17:05 355 4 gusting 4 9.4
2014-Oct-28 16:55 018 6 gusting 6 9.4
2014-Oct-28 16:45 048 1 gusting 2 9.4
2014-Oct-28 16:35 355 2 gusting 6 9.4
2014-Oct-28 16:25 029 4 gusting 4 9.4
2014-Oct-28 16:15 072 3 gusting 4 9.4
2014-Oct-28 16:05 011 3 gusting 7 9.4
2014-Oct-28 15:55 028 3 gusting 3 9.4
2014-Oct-28 15:45 038 2 gusting 5 9.4
2014-Oct-28 15:35 069 1 gusting 5 10.0
2014-Oct-28 15:25 053 3 gusting 3 10.0
2014-Oct-28 15:15 046 2 gusting 5 10.0
2014-Oct-28 14:55 053 2 gusting 7 10.6
2014-Oct-28 14:45 111 2 gusting 2 10.6
2014-Oct-28 14:35 081 5 gusting 5 11.1
2014-Oct-28 14:15 075 5 gusting 8 11.1
2014-Oct-28 14:05 100 3 gusting 5 11.1
2014-Oct-28 13:55 107 1 gusting 1 11.1
2014-Oct-28 13:45 062 4 gusting 7 11.1
2014-Oct-28 13:35 130 1 gusting 2 11.1
2014-Oct-28 13:25 086 7 gusting 7 11.1
2014-Oct-28 13:15 082 8 gusting 8 11.1
2014-Oct-28 13:05 086 6 gusting 6 11.7